FW5890 Weather Reports


Display with metric or nautical units.
time (UTC)temp
F
wind
direction
speed
MPH
gust
MPH
rain 1hr
in
rain 24hr
in
rain mn
in
humidity
%
barometer
mb
20200329062516 39 249 1.0 11.0 0.09 1.05 0.12 93 993.6
20200329062033 39 119 2.0 8.0 0.09 1.04 0.11 93 993.6
20200329061516 39 348 2.0 8.0 0.07 1.02 0.09 93 993.7
20200329061016 39 284 2.0 8.0 0.07 1.01 0.08 93 993.6
20200329060515 39 344 2.0 8.0 0.06 1.00 0.07 93 993.6
20200329060036 39 88 2.0 13.0 0.06 0.99 0.06 93 993.6
20200329055514 39 346 4.0 13.0 0.05 0.98 0.05 93 993.6
20200329055017 39 85 2.0 6.0 0.04 0.97 0.04 93 993.6
20200329054636 39 347 1.0 10.0 0.04 0.97 0.04 93 993.6
20200329054012 38 325 1.0 10.0 0.04 0.97 0.04 93 993.6
20200329053511 38 338 1.0 12.0 0.03 0.96 0.03 93 993.6
20200329053013 38 21 4.0 12.0 0.03 0.96 0.03 93 993.6
20200329052511 38 360 2.0 8.0 0.02 0.95 0.02 93 993.6
20200329052011 38 343 1.0 13.0 0.02 0.95 0.02 93 993.7
20200329051509 38 101 2.0 13.0 0.02 0.95 0.02 93 993.6
20200329051008 38 23 2.0 10.0 0.01 0.94 0.01 93 993.6
20200329050515 38 307 2.0 14.0 0.01 0.94 0.01 93 993.6
20200329050009 38 37 5.0 14.0 0.00 0.93 0.93 93 993.6
20200329045506 38 80 3.0 11.0 0.00 0.93 0.93 92 993.6
20200329045005 38 95 4.0 13.0 0.00 0.93 0.93 92 993.7
20200329044517 38 117 3.0 13.0 0.00 0.93 0.93 93 993.8
20200329044004 38 360 4.0 11.0 0.00 0.93 0.93 93 993.7
20200329043507 38 37 4.0 11.0 0.01 0.93 0.93 93 993.9
20200329043002 38 114 3.0 10.0 0.01 0.93 0.93 93 993.9
20200329042600 38 114 5.0 10.0 0.01 0.93 0.93 93 993.9
20200329042100 38 67 3.0 7.0 0.02 0.93 0.93 93 994.0
20200329041736 38 55 2.0 14.0 0.03 0.93 0.93 93 994.0
20200329041100 38 54 4.0 14.0 0.03 0.93 0.93 93 994.1
20200329040602 38 98 2.0 9.0 0.03 0.93 0.93 93 994.0
20200329040146 38 57 2.0 9.0 0.03 0.93 0.93 93 994.1
20200329035557 38 329 2.0 9.0 0.03 0.93 0.93 93 994.2
20200329035108 38 49 3.0 11.0 0.03 0.93 0.93 93 994.1
20200329034628 38 340 3.0 12.0 0.03 0.93 0.93 93 994.1
20200329034112 39 104 3.0 12.0 0.03 0.93 0.93 93 994.0
20200329033601 39 109 4.0 10.0 0.02 0.92 0.92 93 994.0
20200329033128 39 9 2.0 12.0 0.02 0.92 0.92 93 994.3
20200329032553 39 71 4.0 12.0 0.02 0.92 0.92 93 994.3
20200329032105 39 99 3.0 10.0 0.01 0.91 0.91 93 994.5
20200329031738 39 57 2.0 11.0 0.00 0.90 0.90 93 994.7
20200329031051 39 47 2.0 12.0 0.00 0.90 0.90 92 994.9
20200329030551 39 19 2.0 12.0 0.00 0.90 0.90 92 994.9
20200329030133 39 313 1.0 10.0 0.00 0.90 0.90 92 995.0
20200329025556 39 101 3.0 10.0 0.00 0.92 0.90 92 995.0
20200329025048 39 18 3.0 8.0 0.00 0.92 0.90 92 995.2
20200329024719 39 26 2.0 9.0 0.00 0.92 0.90 92 995.2
20200329024050 39 112 2.0 10.0 0.00 0.92 0.90 92 995.4
20200329023555 40 72 3.0 10.0 0.00 0.92 0.90 92 995.4
20200329023114 40 76 2.0 15.0 0.00 0.92 0.90 92 995.4
20200329022545 40 115 5.0 13.0 0.00 0.92 0.90 92 995.4
20200329022044 40 117 3.0 11.0 0.00 0.92 0.90 92 995.4
20200329021557 40 121 5.0 14.0 0.00 0.92 0.90 92 995.5
20200329021054 40 5 4.0 14.0 0.00 0.92 0.90 92 995.8
20200329020541 40 65 4.0 11.0 0.00 0.92 0.90 92 995.8
20200329020130 40 78 3.0 11.0 0.00 0.92 0.90 92 995.8
20200329015540 40 117 4.0 11.0 0.01 0.92 0.90 93 996.1
20200329015039 40 34 4.0 11.0 0.01 0.92 0.90 92 996.2
20200329014627 40 103 4.0 11.0 0.02 0.92 0.90 92 996.3
20200329014036 40 116 3.0 10.0 0.04 0.92 0.90 92 996.3
20200329013538 40 48 3.0 10.0 0.06 0.92 0.90 92 996.3
20200329013130 41 38 3.0 9.0 0.09 0.92 0.90 93 996.5
20200329012536 41 95 3.0 12.0 0.11 0.92 0.90 93 996.6
20200329012038 41 152 3.0 12.0 0.12 0.92 0.90 93 996.8
20200329011612 41 138 4.0 11.0 0.16 0.92 0.90 93 996.7
20200329011037 41 105 3.0 11.0 0.19 0.92 0.90 93 996.8
20200329010533 41 338 2.0 9.0 0.21 0.92 0.90 93 997.0
20200329010213 41 19 2.0 10.0 0.24 0.92 0.90 93 997.3
20200329005535 41 55 3.0 10.0 0.27 0.91 0.89 92 997.4
20200329005030 41 86 1.0 7.0 0.28 0.91 0.89 93 997.6
20200329004557 41 84 2.0 6.0 0.28 0.89 0.87 92 997.7
20200329004029 41 347 1.0 8.0 0.28 0.88 0.86 92 998.0
20200329003527 42 122 2.0 9.0 0.26 0.85 0.83 92 998.1
20200329003043 42 15 1.0 9.0 0.25 0.83 0.81 92 998.0
20200329002526 42 30 2.0 11.0 0.23 0.81 0.79 92 998.1
20200329002027 42 71 2.0 11.0 0.22 0.79 0.77 92 998.3
20200329001623 42 77 2.0 7.0 0.19 0.76 0.74 92 998.2
20200329001025 42 74 3.0 8.0 0.16 0.73 0.71 92 997.4
20200329000525 42 345 1.0 8.0 0.14 0.71 0.69 91 997.3
20200329000029 42 162 2.0 9.0 0.10 0.67 0.65 91 997.4
20200328235528 43 94 1.0 12.0 0.10 0.64 0.62 91 997.9
20200328235023 43 360 2.0 8.0 0.10 0.61 0.59 91 997.9
20200328234558 43 262 3.0 8.0 0.11 0.61 0.59 91 997.4
20200328234034 43 39 2.0 8.0 0.13 0.60 0.57 91 997.3
20200328233521 43 99 2.0 14.0 0.19 0.59 0.56 91 997.5
20200328233100 43 20 3.0 16.0 0.18 0.57 0.56 91 997.4
20200328232528 43 76 9.0 16.0 0.18 0.57 0.56 91 997.4
20200328232021 43 65 6.0 17.0 0.18 0.56 0.55 91 997.3
20200328231531 43 90 5.0 22.0 0.19 0.56 0.55 91 997.3
20200328231024 43 92 8.0 22.0 0.21 0.56 0.55 91 997.0
20200328230527 43 82 9.0 18.0 0.21 0.56 0.55 91 997.0
20200328230029 43 100 5.0 21.0 0.21 0.56 0.54 91 997.3
20200328225521 43 146 10.0 21.0 0.19 0.53 0.51 91 997.1
20200328225019 43 76 8.0 18.0 0.19 0.51 0.49 91 997.4
20200328224529 43 63 6.0 18.0 0.18 0.49 0.47 91 997.6
20200328224018 43 132 5.0 17.0 0.14 0.45 0.43 91 998.3
20200328223525 43 67 7.0 17.0 0.09 0.40 0.38 91 998.3
20200328223033 43 124 8.0 17.0 0.09 0.40 0.38 91 997.4
20200328222520 43 94 6.0 14.0 0.09 0.40 0.38 91 996.8
20200328222016 43 87 7.0 15.0 0.08 0.39 0.37 91 997.4
20200328221529 43 36 7.0 15.0 0.06 0.37 0.35 91 997.5
20200328221015 43 95 4.0 14.0 0.05 0.36 0.34 92 998.2
20200328220516 43 94 6.0 19.0 0.05 0.36 0.34 91 997.8
20200328220018 43 87 8.0 19.0 0.04 0.35 0.33 91 997.3
20200328215515 44 109 10.0 18.0 0.03 0.34 0.32 91 997.3
20200328215022 44 120 9.0 20.0 0.00 0.31 0.28 91 997.5
20200328214529 44 49 8.0 18.0 0.01 0.31 0.28 91 998.3
20200328214013 44 70 8.0 14.0 0.01 0.31 0.28 91 997.7
20200328213523 44 55 7.0 17.0 0.01 0.31 0.28 91 998.2
20200328213038 44 104 6.0 17.0 0.01 0.31 0.28 91 998.3
20200328212510 44 56 6.0 16.0 0.02 0.31 0.28 91 998.4
20200328212009 44 49 8.0 18.0 0.03 0.31 0.28 92 999.0
20200328211512 44 20 9.0 18.0 0.05 0.31 0.28 92 998.9
20200328211007 44 55 7.0 18.0 0.08 0.31 0.28 91 999.2
20200328210515 44 95 8.0 17.0 0.12 0.31 0.28 92 999.5
20200328210007 44 90 7.0 17.0 0.15 0.31 0.28 92 999.9
20200328205504 44 78 7.0 15.0 0.19 0.31 0.28 92 1000.0
20200328205003 44 47 6.0 15.0 0.20 0.31 0.28 92 1000.3
20200328204501 44 80 5.0 13.0 0.21 0.30 0.28 92 1000.6
20200328204103 44 57 5.0 13.0 0.22 0.30 0.28 93 1000.9
20200328203559 44 46 5.0 13.0 0.24 0.30 0.28 93 1001.2
20200328203141 44 77 5.0 12.0 0.26 0.30 0.28 93 1001.1
20200328202602 44 92 3.0 12.0 0.27 0.28 0.27 93 1001.1
20200328202104 44 49 5.0 11.0 0.26 0.28 0.26 93 1001.5
20200328201700 44 9 5.0 13.0 0.24 0.26 0.24 93 1001.8
20200328201055 44 78 5.0 13.0 0.21 0.23 0.21 92 1002.0
20200328200552 44 78 5.0 11.0 0.18 0.20 0.18 92 1001.9
20200328200211 44 88 4.0 11.0 0.14 0.16 0.14 92 1002.0
20200328195601 44 76 5.0 11.0 0.11 0.13 0.11 92 1002.7
20200328195049 44 83 3.0 11.0 0.09 0.11 0.09 92 1003.3
20200328194600 44 92 5.0 10.0 0.07 0.09 0.07 92 1003.0
20200328194046 44 61 3.0 10.0 0.06 0.08 0.06 92 1002.9
20200328193545 45 105 2.0 10.0 0.04 0.06 0.04 92 1003.2
20200328193137 45 78 4.0 10.0 0.02 0.04 0.02 91 1003.4
20200328192543 45 98 3.0 11.0 0.00 0.02 0.00 91 1003.5
20200328192043 45 55 3.0 11.0 0.00 0.02 0.00 90 1003.5
20200328191624 45 81 3.0 11.0 0.00 0.02 0.00 90 1003.5
20200328191042 45 68 5.0 9.0 0.00 0.02 0.00 90 1003.6
20200328190540 45 10 3.0 9.0 0.00 0.02 0.00 89 1003.8
20200328190150 45 63 4.0 9.0 0.00 0.02 0.00 89 1004.0
20200328185538 45 71 4.0 11.0 0.00 0.02 0.00 90 1004.1
20200328185041 45 80 4.0 16.0 0.00 0.02 0.00 90 1004.2
20200328184541 45 98 6.0 16.0 0.00 0.02 0.00 90 1004.1
20200328184038 45 58 5.0 12.0 0.00 0.02 0.00 90 1004.1
20200328183541 45 73 4.0 14.0 0.00 0.02 0.00 90 1004.1
20200328183115 45 93 3.0 14.0 0.00 0.02 0.00 89 1004.1
20200328182542 45 99 4.0 10.0 0.00 0.02 0.00 89 1004.2
20200328182042 45 78 4.0 10.0 0.00 0.02 0.00 89 1004.2
20200328181547 45 81 4.0 9.0 0.00 0.02 0.00 89 1004.2
20200328181034 46 62 5.0 14.0 0.00 0.02 0.00 88 1004.3
20200328180537 46 61 4.0 15.0 0.00 0.02 0.00 88 1004.1
20200328180120 46 114 6.0 15.0 0.00 0.02 0.00 87 1004.2
20200328175534 46 73 6.0 13.0 0.00 0.02 0.00 86 1004.4
20200328175030 46 105 7.0 17.0 0.00 0.02 0.00 85 1004.8
20200328174618 47 99 7.0 17.0 0.00 0.02 0.00 84 1004.9
20200328174027 47 111 6.0 13.0 0.00 0.02 0.00 83 1005.0
20200328173527 47 125 6.0 13.0 0.00 0.02 0.00 82 1005.2
20200328173101 47 89 7.0 13.0 0.00 0.02 0.00 81 1005.5
20200328172532 47 110 4.0 13.0 0.00 0.02 0.00 81 1005.5
20200328172027 47 145 7.0 13.0 0.00 0.02 0.00 80 1005.7
20200328171535 47 153 5.0 14.0 0.00 0.02 0.00 80 1005.6
20200328171027 48 96 7.0 14.0 0.00 0.02 0.00 80 1005.2
20200328170526 47 83 7.0 17.0 0.00 0.02 0.00 79 1005.0
20200328170029 47 107 6.0 14.0 0.00 0.02 0.00 80 1004.9
20200328165525 47 120 6.0 15.0 0.00 0.02 0.00 80 1004.9
20200328165028 47 101 8.0 16.0 0.00 0.02 0.00 80 1005.0
20200328164621 48 105 6.0 14.0 0.00 0.02 0.00 79 1005.1
20200328164022 48 139 6.0 16.0 0.00 0.02 0.00 79 1005.2
20200328163521 48 152 8.0 16.0 0.00 0.02 0.00 79 1005.6
20200328163023 48 98 7.0 15.0 0.00 0.02 0.00 78 1005.6
20200328162523 48 115 7.0 19.0 0.00 0.02 0.00 79 1005.7
20200328162020 48 106 7.0 19.0 0.00 0.02 0.00 79 1005.7
20200328161557 47 87 4.0 16.0 0.00 0.02 0.00 80 1005.8
20200328161019 47 80 2.0 12.0 0.00 0.02 0.00 80 1005.8
20200328160519 47 146 5.0 12.0 0.00 0.02 0.00 80 1005.9
20200328160033 47 46 3.0 11.0 0.00 0.02 0.00 80 1005.9
20200328155518 47 63 4.0 11.0 0.00 0.02 0.00 80 1006.0
20200328155043 47 91 5.0 10.0 0.00 0.02 0.00 80 1006.2
20200328154532 47 127 5.0 11.0 0.00 0.02 0.00 80 1006.2
20200328154018 47 71 4.0 11.0 0.00 0.02 0.00 80 1006.1
20200328153518 47 90 3.0 10.0 0.00 0.02 0.00 81 1006.3
20200328153048 47 133 3.0 10.0 0.00 0.02 0.00 81 1006.4
20200328152517 47 57 2.0 9.0 0.00 0.02 0.00 81 1006.4
20200328152017 47 115 3.0 9.0 0.00 0.02 0.00 81 1006.4
20200328151544 47 84 3.0 9.0 0.00 0.02 0.00 81 1006.3
20200328151034 47 52 3.0 12.0 0.00 0.02 0.00 81 1006.1
20200328150523 46 69 5.0 12.0 0.00 0.02 0.00 81 1006.0
20200328150021 46 70 3.0 11.0 0.00 0.02 0.00 81 1005.8
20200328145517 46 44 4.0 11.0 0.00 0.02 0.00 81 1005.7
20200328145015 46 67 4.0 12.0 0.00 0.02 0.00 82 1005.6
20200328144531 46 75 4.0 12.0 0.00 0.02 0.00 82 1005.4
20200328144027 46 57 5.0 14.0 0.00 0.02 0.00 82 1005.6
20200328143515 46 117 6.0 14.0 0.00 0.02 0.00 82 1005.5
20200328143044 46 89 8.0 14.0 0.00 0.02 0.00 82 1005.5
20200328142515 46 131 4.0 13.0 0.00 0.02 0.00 83 1005.7
20200328142012 46 44 5.0 10.0 0.00 0.02 0.00 83 1005.8
20200328141515 46 125 5.0 10.0 0.00 0.02 0.00 83 1005.8
20200328141031 46 87 6.0 10.0 0.00 0.02 0.00 84 1005.6
20200328140511 46 96 3.0 15.0 0.00 0.02 0.00 85 1005.6
20200328140011 46 59 5.0 15.0 0.00 0.02 0.00 85 1005.7
20200328135510 45 75 4.0 10.0 0.00 0.02 0.00 85 1005.7
20200328135009 45 98 5.0 10.0 0.00 0.02 0.00 85 1005.7
20200328134507 45 111 4.0 10.0 0.00 0.02 0.00 86 1006.0
20200328134015 45 80 5.0 10.0 0.00 0.02 0.00 86 1006.1
20200328133508 45 120 4.0 10.0 0.00 0.02 0.00 86 1006.5
20200328133009 45 134 2.0 10.0 0.00 0.02 0.00 86 1006.6
20200328132513 45 106 3.0 10.0 0.00 0.02 0.00 86 1006.8
20200328132004 45 53 3.0 8.0 0.00 0.02 0.00 86 1006.9
20200328131518 45 127 4.0 8.0 0.00 0.02 0.00 86 1006.8
20200328131003 45 81 2.0 7.0 0.00 0.02 0.00 87 1006.6
20200328130503 45 46 2.0 7.0 0.00 0.02 0.00 87 1006.7
20200328130013 45 90 1.0 7.0 0.00 0.02 0.00 87 1006.8
20200328125503 45 53 2.0 11.0 0.00 0.02 0.00 87 1006.6
20200328125002 45 89 5.0 12.0 0.00 0.02 0.00 87 1006.4
20200328124512 45 101 5.0 12.0 0.00 0.02 0.00 87 1006.5
20200328124105 45 94 5.0 8.0 0.00 0.02 0.00 87 1006.8
20200328123610 45 76 2.0 8.0 0.00 0.02 0.00 87 1007.4
20200328123142 45 84 2.0 5.0 0.00 0.02 0.00 87 1007.5
20200328122622 45 111 1.0 6.0 0.00 0.02 0.00 86 1007.7
20200328122103 45 101 2.0 6.0 0.00 0.02 0.00 86 1007.8
20200328121755 45 77 2.0 6.0 0.00 0.02 0.00 86 1008.0
20200328121059 45 86 1.0 6.0 0.00 0.02 0.00 87 1007.7
20200328120603 45 104 2.0 8.0 0.00 0.02 0.00 87 1007.4
20200328120236 45 32 2.0 9.0 0.00 0.02 0.00 87 1006.9
20200328115557 45 101 4.0 11.0 0.00 0.02 0.00 86 1006.4
20200328115110 45 117 4.0 11.0 0.00 0.02 0.00 86 1006.2
20200328114719 45 88 4.0 8.0 0.00 0.02 0.00 86 1006.4
20200328114058 45 107 3.0 8.0 0.00 0.02 0.00 86 1006.9
20200328113600 45 76 2.0 8.0 0.00 0.02 0.00 86 1007.1
20200328113115 45 56 1.0 7.0 0.00 0.02 0.00 86 1007.1
20200328112600 45 128 2.0 7.0 0.00 0.02 0.00 86 1007.1
20200328112053 45 94 2.0 7.0 0.00 0.02 0.00 86 1007.0
20200328111606 45 100 3.0 7.0 0.00 0.02 0.00 86 1007.1
20200328111053 45 107 3.0 12.0 0.00 0.02 0.00 86 1007.2
20200328110552 45 115 5.0 12.0 0.00 0.02 0.00 86 1006.9
20200328110106 45 114 3.0 7.0 0.00 0.02 0.00 86 1006.9
20200328105604 46 98 1.0 6.0 0.00 0.02 0.00 86 1006.9
20200328105051 46 110 2.0 6.0 0.00 0.02 0.00 86 1007.0
20200328104645 46 107 1.0 6.0 0.00 0.02 0.00 86 1006.9
20200328104053 46 67 3.0 6.0 0.00 0.02 0.00 86 1006.8
20200328103606 46 103 1.0 7.0 0.00 0.02 0.00 86 1006.7
20200328103142 46 101 2.0 7.0 0.00 0.02 0.00 86 1006.7
20200328102550 46 68 1.0 6.0 0.00 0.02 0.00 86 1006.6
20200328102049 46 69 2.0 8.0 0.00 0.02 0.00 86 1006.5
20200328101700 46 80 3.0 8.0 0.00 0.02 0.00 85 1006.5
20200328101106 46 21 2.0 5.0 0.00 0.02 0.00 85 1006.3
20200328100546 46 89 1.0 5.0 0.00 0.02 0.00 85 1006.4
20200328100214 46 67 2.0 5.0 0.00 0.02 0.00 85 1006.3
20200328095549 46 90 1.0 7.0 0.00 0.02 0.00 85 1006.3
20200328095045 46 73 1.0 7.0 0.00 0.02 0.00 84 1006.3
20200328094600 46 77 2.0 6.0 0.00 0.02 0.00 84 1006.3
20200328094044 46 50 3.0 7.0 0.00 0.02 0.00 84 1006.4
20200328093114 46 63 2.0 5.0 0.00 0.02 0.00 84 1006.4
20200328092600 46 60 1.0 5.0 0.00 0.02 0.00 84 1006.5
20200328092048 46 110 1.0 4.0 0.00 0.02 0.00 84 1006.4
20200328091615 46 124 1.0 4.0 0.00 0.02 0.00 84 1006.5
20200328091100 46 91 2.0 6.0 0.00 0.02 0.00 84 1006.5
20200328090544 46 113 2.0 6.0 0.00 0.02 0.00 84 1006.5
20200328090155 46 93 2.0 7.0 0.00 0.02 0.00 84 1006.6
20200328085537 46 95 3.0 7.0 0.00 0.02 0.00 84 1006.8
20200328085039 46 117 2.0 9.0 0.00 0.02 0.00 84 1006.7
20200328084624 47 100 4.0 9.0 0.00 0.02 0.00 84 1007.0
20200328084056 46 97 1.0 3.0 0.00 0.02 0.00 84 1007.2
20200328083556 46 90 1.0 7.0 0.00 0.02 0.00 84 1007.3
20200328083109 46 105 1.0 6.0 0.00 0.02 0.00 84 1007.5
20200328082532 46 63 1.0 4.0 0.00 0.02 0.00 84 1007.4
20200328082047 46 96 1.0 2.0 0.00 0.02 0.00 84 1007.5
20200328081610 46 71 1.0 2.0 0.00 0.02 0.00 84 1007.6
20200328081031 46 73 0.0 3.0 0.00 0.02 0.00 84 1007.6
20200328080533 47 73 0.0 3.0 0.00 0.02 0.00 84 1007.6
20200328080115 47 75 0.0 3.0 0.00 0.02 0.00 84 1007.8
20200328075605 47 75 0.0 3.0 0.00 0.02 0.00 84 1007.9
20200328075031 47 74 1.0 6.0 0.00 0.02 0.00 84 1007.9
20200328074540 47 74 0.0 6.0 0.00 0.02 0.00 84 1007.9
20200328074028 47 132 1.0 4.0 0.00 0.02 0.00 84 1007.8
20200328073529 47 77 2.0 4.0 0.00 0.02 0.00 84 1007.7
20200328072527 47 82 1.0 3.0 0.00 0.02 0.00 83 1007.6
20200328072031 47 74 1.0 3.0 0.00 0.02 0.00 82 1007.6
20200328071551 47 63 1.0 4.0 0.00 0.02 0.00 82 1007.6
20200328071023 47 76 1.0 5.0 0.00 0.02 0.00 81 1007.6
20200328070536 48 78 1.0 5.0 0.00 0.02 0.00 81 1007.7
20200328065522 48 84 1.0 5.0 0.00 0.02 0.00 81 1007.9
20200328065020 48 71 2.0 5.0 0.00 0.02 0.00 80 1008.0
20200328064632 48 74 2.0 5.0 0.00 0.02 0.00 81 1008.2
20200328064018 48 79 0.0 4.0 0.00 0.02 0.00 81 1008.3
20200328063519 48 88 1.0 4.0 0.00 0.02 0.00 81 1008.4
20200328063021 48 113 1.0 3.0 0.00 0.02 0.00 81 1008.5